sensor_id;sensor_type;location;lat;lon;timestamp;temperature;humidity
68248;SHT30;55064;49.636;12.164;2022-09-24T00:01:24;8.24;85.13
68248;SHT30;55064;49.636;12.164;2022-09-24T00:03:57;8.29;85.02
68248;SHT30;55064;49.636;12.164;2022-09-24T00:06:27;8.29;84.60
68248;SHT30;55064;49.636;12.164;2022-09-24T00:08:58;8.28;84.67
68248;SHT30;55064;49.636;12.164;2022-09-24T00:11:25;8.17;85.30
68248;SHT30;55064;49.636;12.164;2022-09-24T00:13:57;8.14;84.78
68248;SHT30;55064;49.636;12.164;2022-09-24T00:16:27;8.18;84.68
68248;SHT30;55064;49.636;12.164;2022-09-24T00:18:57;8.15;84.70
68248;SHT30;55064;49.636;12.164;2022-09-24T00:21:27;8.14;84.47
68248;SHT30;55064;49.636;12.164;2022-09-24T00:23:55;8.20;84.55
68248;SHT30;55064;49.636;12.164;2022-09-24T00:26:22;8.20;84.54
68248;SHT30;55064;49.636;12.164;2022-09-24T00:29:07;8.21;84.43
68248;SHT30;55064;49.636;12.164;2022-09-24T00:31:33;8.17;85.06
68248;SHT30;55064;49.636;12.164;2022-09-24T00:33:58;8.17;84.47
68248;SHT30;55064;49.636;12.164;2022-09-24T00:36:25;8.15;84.54
68248;SHT30;55064;49.636;12.164;2022-09-24T00:38:53;8.18;84.30
68248;SHT30;55064;49.636;12.164;2022-09-24T00:41:21;8.14;84.78
68248;SHT30;55064;49.636;12.164;2022-09-24T00:43:47;8.12;84.73
68248;SHT30;55064;49.636;12.164;2022-09-24T00:46:38;8.11;85.21
68248;SHT30;55064;49.636;12.164;2022-09-24T00:51:38;8.20;85.78
68248;SHT30;55064;49.636;12.164;2022-09-24T00:54:12;8.14;85.79
68248;SHT30;55064;49.636;12.164;2022-09-24T00:56:39;8.17;84.91
68248;SHT30;55064;49.636;12.164;2022-09-24T00:59:10;8.14;85.07
68248;SHT30;55064;49.636;12.164;2022-09-24T01:01:42;8.18;84.93
68248;SHT30;55064;49.636;12.164;2022-09-24T01:04:08;8.15;85.11
68248;SHT30;55064;49.636;12.164;2022-09-24T01:06:37;8.12;85.02
68248;SHT30;55064;49.636;12.164;2022-09-24T01:09:03;8.11;85.29
68248;SHT30;55064;49.636;12.164;2022-09-24T01:14:16;8.10;85.48
68248;SHT30;55064;49.636;12.164;2022-09-24T01:17:06;8.08;85.51
68248;SHT30;55064;49.636;12.164;2022-09-24T01:30:52;8.04;85.09
68248;SHT30;55064;49.636;12.164;2022-09-24T01:33:24;8.04;84.78
68248;SHT30;55064;49.636;12.164;2022-09-24T01:35:55;8.07;85.04
68248;SHT30;55064;49.636;12.164;2022-09-24T01:38:25;8.03;84.82
68248;SHT30;55064;49.636;12.164;2022-09-24T01:40:54;8.03;85.22
68248;SHT30;55064;49.636;12.164;2022-09-24T01:43:23;8.01;85.16
68248;SHT30;55064;49.636;12.164;2022-09-24T01:45:49;7.98;84.98
68248;SHT30;55064;49.636;12.164;2022-09-24T01:48:15;7.94;85.14
68248;SHT30;55064;49.636;12.164;2022-09-24T01:50:56;7.98;85.46
68248;SHT30;55064;49.636;12.164;2022-09-24T01:53:31;7.94;85.63
68248;SHT30;55064;49.636;12.164;2022-09-24T01:56:02;7.91;85.48
68248;SHT30;55064;49.636;12.164;2022-09-24T01:58:43;7.87;85.55
68248;SHT30;55064;49.636;12.164;2022-09-24T02:01:16;7.89;85.37
68248;SHT30;55064;49.636;12.164;2022-09-24T02:03:52;7.91;85.51
68248;SHT30;55064;49.636;12.164;2022-09-24T02:06:30;7.90;85.90
68248;SHT30;55064;49.636;12.164;2022-09-24T02:08:57;7.90;86.04
68248;SHT30;55064;49.636;12.164;2022-09-24T02:11:28;7.90;85.96
68248;SHT30;55064;49.636;12.164;2022-09-24T02:14:13;7.91;85.92
68248;SHT30;55064;49.636;12.164;2022-09-24T02:16:48;7.87;86.46
68248;SHT30;55064;49.636;12.164;2022-09-24T02:19:20;7.91;87.17
68248;SHT30;55064;49.636;12.164;2022-09-24T02:21:50;7.86;87.95
68248;SHT30;55064;49.636;12.164;2022-09-24T02:24:21;7.74;88.68
68248;SHT30;55064;49.636;12.164;2022-09-24T02:26:49;7.79;88.70
68248;SHT30;55064;49.636;12.164;2022-09-24T02:29:15;7.83;88.49
68248;SHT30;55064;49.636;12.164;2022-09-24T02:31:46;7.80;87.95
68248;SHT30;55064;49.636;12.164;2022-09-24T02:34:35;7.74;88.16
68248;SHT30;55064;49.636;12.164;2022-09-24T02:37:13;7.79;88.39
68248;SHT30;55064;49.636;12.164;2022-09-24T02:39:39;7.80;87.56
68248;SHT30;55064;49.636;12.164;2022-09-24T02:42:05;7.76;87.95
68248;SHT30;55064;49.636;12.164;2022-09-24T02:44:32;7.77;87.62
68248;SHT30;55064;49.636;12.164;2022-09-24T02:46:58;7.76;87.62
68248;SHT30;55064;49.636;12.164;2022-09-24T02:49:24;7.69;87.70
68248;SHT30;55064;49.636;12.164;2022-09-24T02:51:49;7.67;87.45
68248;SHT30;55064;49.636;12.164;2022-09-24T02:54:17;7.67;87.26
68248;SHT30;55064;49.636;12.164;2022-09-24T02:56:42;7.65;87.06
68248;SHT30;55064;49.636;12.164;2022-09-24T02:59:08;7.65;87.03
68248;SHT30;55064;49.636;12.164;2022-09-24T03:01:34;7.58;87.31
68248;SHT30;55064;49.636;12.164;2022-09-24T03:03:59;7.49;87.39
68248;SHT30;55064;49.636;12.164;2022-09-24T03:06:25;7.45;87.36
68248;SHT30;55064;49.636;12.164;2022-09-24T03:08:55;7.41;87.98
68248;SHT30;55064;49.636;12.164;2022-09-24T03:11:23;7.35;88.10
68248;SHT30;55064;49.636;12.164;2022-09-24T03:13:50;7.28;89.07
68248;SHT30;55064;49.636;12.164;2022-09-24T03:16:16;7.25;89.03
68248;SHT30;55064;49.636;12.164;2022-09-24T03:18:42;7.18;88.46
68248;SHT30;55064;49.636;12.164;2022-09-24T03:21:14;7.15;88.38
68248;SHT30;55064;49.636;12.164;2022-09-24T03:23:42;7.19;88.12
68248;SHT30;55064;49.636;12.164;2022-09-24T03:26:13;7.21;87.95
68248;SHT30;55064;49.636;12.164;2022-09-24T03:28:39;7.17;88.17
68248;SHT30;55064;49.636;12.164;2022-09-24T03:31:05;7.15;87.82
68248;SHT30;55064;49.636;12.164;2022-09-24T03:33:35;7.08;87.89
68248;SHT30;55064;49.636;12.164;2022-09-24T03:36:10;6.93;89.09
68248;SHT30;55064;49.636;12.164;2022-09-24T03:38:39;6.84;89.67
68248;SHT30;55064;49.636;12.164;2022-09-24T03:41:06;6.87;89.21
68248;SHT30;55064;49.636;12.164;2022-09-24T03:43:31;6.93;89.08
68248;SHT30;55064;49.636;12.164;2022-09-24T03:46:01;6.90;88.97
68248;SHT30;55064;49.636;12.164;2022-09-24T03:48:29;6.89;89.46
68248;SHT30;55064;49.636;12.164;2022-09-24T03:50:55;6.87;89.42
68248;SHT30;55064;49.636;12.164;2022-09-24T03:53:20;6.77;89.90
68248;SHT30;55064;49.636;12.164;2022-09-24T03:55:51;6.75;89.39
68248;SHT30;55064;49.636;12.164;2022-09-24T03:58:17;6.61;90.03
68248;SHT30;55064;49.636;12.164;2022-09-24T04:00:45;6.61;89.54
68248;SHT30;55064;49.636;12.164;2022-09-24T04:03:13;6.66;89.85
68248;SHT30;55064;49.636;12.164;2022-09-24T04:05:38;6.61;90.26
68248;SHT30;55064;49.636;12.164;2022-09-24T04:08:04;6.59;90.11
68248;SHT30;55064;49.636;12.164;2022-09-24T04:10:30;6.65;89.67
68248;SHT30;55064;49.636;12.164;2022-09-24T04:12:59;6.59;90.08
68248;SHT30;55064;49.636;12.164;2022-09-24T04:15:27;6.61;90.44
68248;SHT30;55064;49.636;12.164;2022-09-24T04:17:57;6.69;90.01
68248;SHT30;55064;49.636;12.164;2022-09-24T04:20:27;6.50;90.63
68248;SHT30;55064;49.636;12.164;2022-09-24T04:22:57;6.46;91.37
68248;SHT30;55064;49.636;12.164;2022-09-24T04:25:25;6.50;91.17
68248;SHT30;55064;49.636;12.164;2022-09-24T04:27:55;6.53;90.96
68248;SHT30;55064;49.636;12.164;2022-09-24T04:30:23;6.55;90.47
68248;SHT30;55064;49.636;12.164;2022-09-24T04:32:49;6.55;90.59
68248;SHT30;55064;49.636;12.164;2022-09-24T04:35:19;6.52;90.80
68248;SHT30;55064;49.636;12.164;2022-09-24T04:37:46;6.61;90.17
68248;SHT30;55064;49.636;12.164;2022-09-24T04:40:15;6.68;90.25
68248;SHT30;55064;49.636;12.164;2022-09-24T04:42:46;6.69;89.87
68248;SHT30;55064;49.636;12.164;2022-09-24T04:45:17;6.77;90.28
68248;SHT30;55064;49.636;12.164;2022-09-24T04:47:49;6.76;89.61
68248;SHT30;55064;49.636;12.164;2022-09-24T04:50:25;6.81;89.27
68248;SHT30;55064;49.636;12.164;2022-09-24T04:53:00;6.84;89.47
68248;SHT30;55064;49.636;12.164;2022-09-24T04:55:28;6.81;89.25
68248;SHT30;55064;49.636;12.164;2022-09-24T04:57:57;6.86;89.06
68248;SHT30;55064;49.636;12.164;2022-09-24T05:00:27;6.90;88.77
68248;SHT30;55064;49.636;12.164;2022-09-24T05:03:00;6.91;88.76
68248;SHT30;55064;49.636;12.164;2022-09-24T05:05:30;6.93;88.41
68248;SHT30;55064;49.636;12.164;2022-09-24T05:07:57;6.90;88.69
68248;SHT30;55064;49.636;12.164;2022-09-24T05:10:29;6.91;88.69
68248;SHT30;55064;49.636;12.164;2022-09-24T05:12:59;6.96;88.42
68248;SHT30;55064;49.636;12.164;2022-09-24T05:15:24;6.93;88.62
68248;SHT30;55064;49.636;12.164;2022-09-24T05:17:50;7.01;89.08
68248;SHT30;55064;49.636;12.164;2022-09-24T05:20:17;6.96;88.89
68248;SHT30;55064;49.636;12.164;2022-09-24T05:22:44;6.94;88.68
68248;SHT30;55064;49.636;12.164;2022-09-24T05:25:12;6.99;89.19
68248;SHT30;55064;49.636;12.164;2022-09-24T05:27:43;7.00;88.82
68248;SHT30;55064;49.636;12.164;2022-09-24T05:30:09;6.97;89.09
68248;SHT30;55064;49.636;12.164;2022-09-24T05:32:37;6.99;89.45
68248;SHT30;55064;49.636;12.164;2022-09-24T05:35:02;7.00;88.74
68248;SHT30;55064;49.636;12.164;2022-09-24T05:37:28;7.01;88.72
68248;SHT30;55064;49.636;12.164;2022-09-24T05:39:58;7.03;88.65
68248;SHT30;55064;49.636;12.164;2022-09-24T05:42:44;6.99;88.35
68248;SHT30;55064;49.636;12.164;2022-09-24T05:45:11;6.97;88.62
68248;SHT30;55064;49.636;12.164;2022-09-24T05:47:39;7.01;89.10
68248;SHT30;55064;49.636;12.164;2022-09-24T05:50:09;6.96;88.58
68248;SHT30;55064;49.636;12.164;2022-09-24T05:52:34;6.90;88.65
68248;SHT30;55064;49.636;12.164;2022-09-24T05:55:00;6.87;88.94
68248;SHT30;55064;49.636;12.164;2022-09-24T05:57:25;6.90;88.51
68248;SHT30;55064;49.636;12.164;2022-09-24T05:59:51;6.93;88.92
68248;SHT30;55064;49.636;12.164;2022-09-24T06:02:17;6.91;88.66
68248;SHT30;55064;49.636;12.164;2022-09-24T06:04:42;6.96;89.45
68248;SHT30;55064;49.636;12.164;2022-09-24T06:07:10;6.97;89.39
68248;SHT30;55064;49.636;12.164;2022-09-24T06:09:38;6.99;89.40
68248;SHT30;55064;49.636;12.164;2022-09-24T06:12:06;6.99;89.38
68248;SHT30;55064;49.636;12.164;2022-09-24T06:14:32;7.01;89.14
68248;SHT30;55064;49.636;12.164;2022-09-24T06:16:57;7.00;89.22
68248;SHT30;55064;49.636;12.164;2022-09-24T06:19:22;7.05;88.89
68248;SHT30;55064;49.636;12.164;2022-09-24T06:21:48;7.07;88.90
68248;SHT30;55064;49.636;12.164;2022-09-24T06:24:13;7.10;89.03
68248;SHT30;55064;49.636;12.164;2022-09-24T06:26:39;7.10;88.90
68248;SHT30;55064;49.636;12.164;2022-09-24T06:29:08;7.12;88.87
68248;SHT30;55064;49.636;12.164;2022-09-24T06:31:33;7.14;89.26
68248;SHT30;55064;49.636;12.164;2022-09-24T06:34:03;7.12;89.93
68248;SHT30;55064;49.636;12.164;2022-09-24T06:36:33;7.15;89.36
68248;SHT30;55064;49.636;12.164;2022-09-24T06:39:03;7.21;89.03
68248;SHT30;55064;49.636;12.164;2022-09-24T06:41:28;7.24;89.45
68248;SHT30;55064;49.636;12.164;2022-09-24T06:43:59;7.29;89.33
68248;SHT30;55064;49.636;12.164;2022-09-24T06:46:26;7.35;89.01
68248;SHT30;55064;49.636;12.164;2022-09-24T06:48:54;7.39;88.67
68248;SHT30;55064;49.636;12.164;2022-09-24T06:51:20;7.48;88.60
68248;SHT30;55064;49.636;12.164;2022-09-24T06:53:53;7.52;87.97
68248;SHT30;55064;49.636;12.164;2022-09-24T06:56:21;7.55;88.24
68248;SHT30;55064;49.636;12.164;2022-09-24T06:58:49;7.62;88.57
68248;SHT30;55064;49.636;12.164;2022-09-24T07:01:14;7.72;88.36
68248;SHT30;55064;49.636;12.164;2022-09-24T07:03:40;7.82;88.70
68248;SHT30;55064;49.636;12.164;2022-09-24T07:06:08;7.83;88.58
68248;SHT30;55064;49.636;12.164;2022-09-24T07:08:36;7.94;87.95
68248;SHT30;55064;49.636;12.164;2022-09-24T07:11:03;8.10;87.50
68248;SHT30;55064;49.636;12.164;2022-09-24T07:13:29;8.24;86.76
68248;SHT30;55064;49.636;12.164;2022-09-24T07:15:57;8.34;86.55
68248;SHT30;55064;49.636;12.164;2022-09-24T07:18:25;8.44;87.05
68248;SHT30;55064;49.636;12.164;2022-09-24T07:20:54;8.45;86.58
68248;SHT30;55064;49.636;12.164;2022-09-24T07:23:20;8.50;86.69
68248;SHT30;55064;49.636;12.164;2022-09-24T07:25:46;8.60;86.04
68248;SHT30;55064;49.636;12.164;2022-09-24T07:28:13;8.66;86.30
68248;SHT30;55064;49.636;12.164;2022-09-24T07:30:40;8.83;85.92
68248;SHT30;55064;49.636;12.164;2022-09-24T07:33:11;8.88;85.45
68248;SHT30;55064;49.636;12.164;2022-09-24T07:35:37;8.94;85.63
68248;SHT30;55064;49.636;12.164;2022-09-24T07:38:10;9.05;85.38
68248;SHT30;55064;49.636;12.164;2022-09-24T07:40:41;9.17;84.90
68248;SHT30;55064;49.636;12.164;2022-09-24T07:43:08;9.25;84.57
68248;SHT30;55064;49.636;12.164;2022-09-24T07:45:40;9.35;83.65
68248;SHT30;55064;49.636;12.164;2022-09-24T07:48:06;9.46;83.03
68248;SHT30;55064;49.636;12.164;2022-09-24T07:50:37;9.49;82.75
68248;SHT30;55064;49.636;12.164;2022-09-24T07:53:03;9.56;82.82
68248;SHT30;55064;49.636;12.164;2022-09-24T07:55:31;9.73;83.36
68248;SHT30;55064;49.636;12.164;2022-09-24T07:58:05;9.86;82.88
68248;SHT30;55064;49.636;12.164;2022-09-24T08:00:34;10.01;82.89
68248;SHT30;55064;49.636;12.164;2022-09-24T08:03:01;10.13;82.14
68248;SHT30;55064;49.636;12.164;2022-09-24T08:05:29;10.21;81.78
68248;SHT30;55064;49.636;12.164;2022-09-24T08:07:59;10.31;81.84
68248;SHT30;55064;49.636;12.164;2022-09-24T08:10:26;10.40;81.98
68248;SHT30;55064;49.636;12.164;2022-09-24T08:12:54;10.59;82.48
68248;SHT30;55064;49.636;12.164;2022-09-24T08:15:21;10.79;81.73
68248;SHT30;55064;49.636;12.164;2022-09-24T08:17:46;10.97;82.22
68248;SHT30;55064;49.636;12.164;2022-09-24T08:20:12;11.21;80.59
68248;SHT30;55064;49.636;12.164;2022-09-24T08:22:38;11.36;80.50
68248;SHT30;55064;49.636;12.164;2022-09-24T08:25:05;11.58;79.71
68248;SHT30;55064;49.636;12.164;2022-09-24T08:27:32;11.78;79.77
68248;SHT30;55064;49.636;12.164;2022-09-24T08:30:00;12.06;79.12
68248;SHT30;55064;49.636;12.164;2022-09-24T08:32:29;12.24;78.10
68248;SHT30;55064;49.636;12.164;2022-09-24T08:34:57;12.49;77.38
68248;SHT30;55064;49.636;12.164;2022-09-24T08:37:25;12.79;75.61
68248;SHT30;55064;49.636;12.164;2022-09-24T08:39:51;13.04;74.64
68248;SHT30;55064;49.636;12.164;2022-09-24T08:42:31;13.55;74.19
68248;SHT30;55064;49.636;12.164;2022-09-24T08:45:02;13.81;72.05
68248;SHT30;55064;49.636;12.164;2022-09-24T08:47:53;13.93;71.54
68248;SHT30;55064;49.636;12.164;2022-09-24T08:50:26;14.20;71.29
68248;SHT30;55064;49.636;12.164;2022-09-24T08:55:54;14.68;70.01
68248;SHT30;55064;49.636;12.164;2022-09-24T08:58:52;14.64;69.85
68248;SHT30;55064;49.636;12.164;2022-09-24T09:01:41;14.44;69.86
68248;SHT30;55064;49.636;12.164;2022-09-24T09:12:53;14.98;68.25
68248;SHT30;55064;49.636;12.164;2022-09-24T09:15:26;14.58;69.91
68248;SHT30;55064;49.636;12.164;2022-09-24T09:17:59;14.44;70.44
68248;SHT30;55064;49.636;12.164;2022-09-24T09:20:43;14.51;70.85
68248;SHT30;55064;49.636;12.164;2022-09-24T09:25:51;14.17;72.03
68248;SHT30;55064;49.636;12.164;2022-09-24T09:28:17;14.47;71.53
68248;SHT30;55064;49.636;12.164;2022-09-24T09:36:09;14.84;69.94
68248;SHT30;55064;49.636;12.164;2022-09-24T09:44:13;15.44;67.84
68248;SHT30;55064;49.636;12.164;2022-09-24T09:46:46;15.48;68.23
68248;SHT30;55064;49.636;12.164;2022-09-24T09:49:18;15.67;67.46
68248;SHT30;55064;49.636;12.164;2022-09-24T09:51:49;15.53;67.83
68248;SHT30;55064;49.636;12.164;2022-09-24T09:54:21;15.50;67.56
68248;SHT30;55064;49.636;12.164;2022-09-24T09:56:48;15.79;67.88
68248;SHT30;55064;49.636;12.164;2022-09-24T09:59:20;16.24;67.10
68248;SHT30;55064;49.636;12.164;2022-09-24T10:01:49;16.65;65.17
68248;SHT30;55064;49.636;12.164;2022-09-24T10:04:37;16.56;65.20
68248;SHT30;55064;49.636;12.164;2022-09-24T10:07:14;16.50;65.29
68248;SHT30;55064;49.636;12.164;2022-09-24T10:09:41;16.09;65.68
68248;SHT30;55064;49.636;12.164;2022-09-24T10:14:55;15.91;66.13
68248;SHT30;55064;49.636;12.164;2022-09-24T10:17:26;16.10;65.77
68248;SHT30;55064;49.636;12.164;2022-09-24T10:19:52;16.40;65.70
68248;SHT30;55064;49.636;12.164;2022-09-24T10:22:24;16.54;64.94
68248;SHT30;55064;49.636;12.164;2022-09-24T10:24:54;16.91;64.40
68248;SHT30;55064;49.636;12.164;2022-09-24T10:27:35;16.92;63.84
68248;SHT30;55064;49.636;12.164;2022-09-24T10:30:11;17.05;63.66
68248;SHT30;55064;49.636;12.164;2022-09-24T10:33:03;16.85;64.69
68248;SHT30;55064;49.636;12.164;2022-09-24T10:35:34;16.24;65.16
68248;SHT30;55064;49.636;12.164;2022-09-24T10:38:16;16.57;65.65
68248;SHT30;55064;49.636;12.164;2022-09-24T10:40:42;16.50;65.06
68248;SHT30;55064;49.636;12.164;2022-09-24T10:43:18;16.47;65.20
68248;SHT30;55064;49.636;12.164;2022-09-24T10:48:46;16.77;65.28
68248;SHT30;55064;49.636;12.164;2022-09-24T10:57:33;17.18;63.14
68248;SHT30;55064;49.636;12.164;2022-09-24T11:00:12;17.18;62.73
68248;SHT30;55064;49.636;12.164;2022-09-24T11:08:00;17.02;62.73
68248;SHT30;55064;49.636;12.164;2022-09-24T11:19:02;16.92;62.63
68248;SHT30;55064;49.636;12.164;2022-09-24T11:32:46;16.74;62.79
68248;SHT30;55064;49.636;12.164;2022-09-24T11:41:15;16.95;62.60
68248;SHT30;55064;49.636;12.164;2022-09-24T11:49:35;16.70;64.74
68248;SHT30;55064;49.636;12.164;2022-09-24T11:52:27;16.54;65.63
68248;SHT30;55064;49.636;12.164;2022-09-24T11:57:32;16.37;65.64
68248;SHT30;55064;49.636;12.164;2022-09-24T12:00:00;16.60;66.23
68248;SHT30;55064;49.636;12.164;2022-09-24T12:12:42;16.58;66.18
68248;SHT30;55064;49.636;12.164;2022-09-24T12:18:05;16.34;65.72
68248;SHT30;55064;49.636;12.164;2022-09-24T12:20:48;16.23;66.32
68248;SHT30;55064;49.636;12.164;2022-09-24T12:23:17;16.37;66.34
68248;SHT30;55064;49.636;12.164;2022-09-24T12:25:47;16.26;67.01
68248;SHT30;55064;49.636;12.164;2022-09-24T12:28:17;16.34;67.28
68248;SHT30;55064;49.636;12.164;2022-09-24T12:31:16;16.34;66.93
68248;SHT30;55064;49.636;12.164;2022-09-24T12:34:18;16.54;67.86
68248;SHT30;55064;49.636;12.164;2022-09-24T12:39:21;16.53;66.94
68248;SHT30;55064;49.636;12.164;2022-09-24T12:41:55;16.47;67.07
68248;SHT30;55064;49.636;12.164;2022-09-24T12:44:42;16.36;67.22
68248;SHT30;55064;49.636;12.164;2022-09-24T12:47:17;16.40;67.39
68248;SHT30;55064;49.636;12.164;2022-09-24T12:49:48;16.26;67.30
68248;SHT30;55064;49.636;12.164;2022-09-24T12:52:26;16.26;68.18
68248;SHT30;55064;49.636;12.164;2022-09-24T12:54:57;16.37;67.13
68248;SHT30;55064;49.636;12.164;2022-09-24T12:57:37;16.43;67.17
68248;SHT30;55064;49.636;12.164;2022-09-24T13:03:00;16.44;67.18
68248;SHT30;55064;49.636;12.164;2022-09-24T13:05:46;16.34;67.59
68248;SHT30;55064;49.636;12.164;2022-09-24T13:11:03;16.50;67.31
68248;SHT30;55064;49.636;12.164;2022-09-24T13:13:36;16.34;67.92
68248;SHT30;55064;49.636;12.164;2022-09-24T13:16:21;16.27;67.76
68248;SHT30;55064;49.636;12.164;2022-09-24T13:18:54;16.53;67.48
68248;SHT30;55064;49.636;12.164;2022-09-24T13:21:26;16.60;67.14
68248;SHT30;55064;49.636;12.164;2022-09-24T13:23:55;16.56;67.57
68248;SHT30;55064;49.636;12.164;2022-09-24T13:28:59;16.36;67.32
68248;SHT30;55064;49.636;12.164;2022-09-24T13:31:39;16.50;67.05
68248;SHT30;55064;49.636;12.164;2022-09-24T13:42:38;16.29;68.46
68248;SHT30;55064;49.636;12.164;2022-09-24T13:45:19;16.29;67.86
68248;SHT30;55064;49.636;12.164;2022-09-24T13:53:05;16.34;68.31
68248;SHT30;55064;49.636;12.164;2022-09-24T13:55:44;16.36;68.33
68248;SHT30;55064;49.636;12.164;2022-09-24T13:58:33;16.37;68.56
68248;SHT30;55064;49.636;12.164;2022-09-24T14:01:01;16.15;68.27
68248;SHT30;55064;49.636;12.164;2022-09-24T14:05:55;16.19;68.72
68248;SHT30;55064;49.636;12.164;2022-09-24T14:08:27;16.16;68.81
68248;SHT30;55064;49.636;12.164;2022-09-24T14:11:28;16.08;69.02
68248;SHT30;55064;49.636;12.164;2022-09-24T14:13:54;16.26;68.96
68248;SHT30;55064;49.636;12.164;2022-09-24T14:16:22;16.33;69.34
68248;SHT30;55064;49.636;12.164;2022-09-24T14:18:59;16.34;69.07
68248;SHT30;55064;49.636;12.164;2022-09-24T14:21:31;16.44;69.16
68248;SHT30;55064;49.636;12.164;2022-09-24T14:24:03;16.29;69.48
68248;SHT30;55064;49.636;12.164;2022-09-24T14:26:33;16.39;69.04
68248;SHT30;55064;49.636;12.164;2022-09-24T14:29:05;16.32;68.95
68248;SHT30;55064;49.636;12.164;2022-09-24T14:31:46;16.16;69.45
68248;SHT30;55064;49.636;12.164;2022-09-24T14:34:26;16.05;69.92
68248;SHT30;55064;49.636;12.164;2022-09-24T14:37:07;16.03;69.83
68248;SHT30;55064;49.636;12.164;2022-09-24T14:39:37;16.01;70.05
68248;SHT30;55064;49.636;12.164;2022-09-24T14:42:08;16.05;70.35
68248;SHT30;55064;49.636;12.164;2022-09-24T14:44:36;16.10;70.28
68248;SHT30;55064;49.636;12.164;2022-09-24T14:47:02;16.06;70.30
68248;SHT30;55064;49.636;12.164;2022-09-24T14:49:30;16.08;70.60
68248;SHT30;55064;49.636;12.164;2022-09-24T14:54:37;15.91;71.62
68248;SHT30;55064;49.636;12.164;2022-09-24T14:59:46;16.02;71.99
68248;SHT30;55064;49.636;12.164;2022-09-24T15:04:58;15.79;72.92
68248;SHT30;55064;49.636;12.164;2022-09-24T15:07:26;15.84;72.83
68248;SHT30;55064;49.636;12.164;2022-09-24T15:09:55;15.85;72.85
68248;SHT30;55064;49.636;12.164;2022-09-24T15:12:27;15.79;73.36
68248;SHT30;55064;49.636;12.164;2022-09-24T15:15:00;15.77;73.48
68248;SHT30;55064;49.636;12.164;2022-09-24T15:17:35;15.85;72.96
68248;SHT30;55064;49.636;12.164;2022-09-24T15:20:03;15.74;72.99
68248;SHT30;55064;49.636;12.164;2022-09-24T15:22:31;15.75;73.39
68248;SHT30;55064;49.636;12.164;2022-09-24T15:24:57;15.62;73.55
68248;SHT30;55064;49.636;12.164;2022-09-24T15:27:31;15.71;73.23
68248;SHT30;55064;49.636;12.164;2022-09-24T15:30:01;15.77;73.22
68248;SHT30;55064;49.636;12.164;2022-09-24T15:32:31;15.78;73.51
68248;SHT30;55064;49.636;12.164;2022-09-24T15:35:01;15.82;73.34
68248;SHT30;55064;49.636;12.164;2022-09-24T15:37:31;15.77;73.65
68248;SHT30;55064;49.636;12.164;2022-09-24T15:40:11;15.74;73.81
68248;SHT30;55064;49.636;12.164;2022-09-24T15:42:39;15.71;74.12
68248;SHT30;55064;49.636;12.164;2022-09-24T15:45:14;15.50;74.35
68248;SHT30;55064;49.636;12.164;2022-09-24T15:47:42;15.43;74.79
68248;SHT30;55064;49.636;12.164;2022-09-24T15:50:10;15.34;75.10
68248;SHT30;55064;49.636;12.164;2022-09-24T15:52:43;15.47;74.61
68248;SHT30;55064;49.636;12.164;2022-09-24T15:55:14;15.50;74.55
68248;SHT30;55064;49.636;12.164;2022-09-24T15:57:40;15.58;74.53
68248;SHT30;55064;49.636;12.164;2022-09-24T16:00:13;15.48;74.85
68248;SHT30;55064;49.636;12.164;2022-09-24T16:02:46;15.44;75.11
68248;SHT30;55064;49.636;12.164;2022-09-24T16:05:15;15.43;75.31
68248;SHT30;55064;49.636;12.164;2022-09-24T16:07:41;15.46;75.31
68248;SHT30;55064;49.636;12.164;2022-09-24T16:10:08;15.24;76.07
68248;SHT30;55064;49.636;12.164;2022-09-24T16:12:34;15.23;76.43
68248;SHT30;55064;49.636;12.164;2022-09-24T16:15:00;15.26;76.42
68248;SHT30;55064;49.636;12.164;2022-09-24T16:17:26;15.19;76.79
68248;SHT30;55064;49.636;12.164;2022-09-24T16:19:52;15.14;76.98
68248;SHT30;55064;49.636;12.164;2022-09-24T16:22:20;15.06;77.00
68248;SHT30;55064;49.636;12.164;2022-09-24T16:24:45;15.00;77.44
68248;SHT30;55064;49.636;12.164;2022-09-24T16:27:11;14.96;77.39
68248;SHT30;55064;49.636;12.164;2022-09-24T16:29:36;14.84;77.69
68248;SHT30;55064;49.636;12.164;2022-09-24T16:32:02;14.74;78.39
68248;SHT30;55064;49.636;12.164;2022-09-24T16:34:28;14.67;78.71
68248;SHT30;55064;49.636;12.164;2022-09-24T16:36:54;14.54;79.20
68248;SHT30;55064;49.636;12.164;2022-09-24T16:39:19;14.45;79.64
68248;SHT30;55064;49.636;12.164;2022-09-24T16:41:48;14.37;79.84
68248;SHT30;55064;49.636;12.164;2022-09-24T16:44:16;14.31;80.23
68248;SHT30;55064;49.636;12.164;2022-09-24T16:46:42;14.29;80.35
68248;SHT30;55064;49.636;12.164;2022-09-24T16:49:11;14.27;80.36
68248;SHT30;55064;49.636;12.164;2022-09-24T16:51:39;14.17;80.65
68248;SHT30;55064;49.636;12.164;2022-09-24T16:54:04;14.16;80.84
68248;SHT30;55064;49.636;12.164;2022-09-24T16:56:32;14.20;80.91
68248;SHT30;55064;49.636;12.164;2022-09-24T16:59:04;14.14;80.99
68248;SHT30;55064;49.636;12.164;2022-09-24T17:01:29;14.08;81.26
68248;SHT30;55064;49.636;12.164;2022-09-24T17:03:56;14.06;81.17
68248;SHT30;55064;49.636;12.164;2022-09-24T17:06:28;13.96;81.64
68248;SHT30;55064;49.636;12.164;2022-09-24T17:08:56;13.93;81.96
68248;SHT30;55064;49.636;12.164;2022-09-24T17:11:40;13.86;82.12
68248;SHT30;55064;49.636;12.164;2022-09-24T17:14:07;13.83;82.29
68248;SHT30;55064;49.636;12.164;2022-09-24T17:16:33;13.76;82.78
68248;SHT30;55064;49.636;12.164;2022-09-24T17:19:02;13.68;82.73
68248;SHT30;55064;49.636;12.164;2022-09-24T17:21:27;13.66;83.21
68248;SHT30;55064;49.636;12.164;2022-09-24T17:23:53;13.64;83.44
68248;SHT30;55064;49.636;12.164;2022-09-24T17:26:23;13.64;83.50
68248;SHT30;55064;49.636;12.164;2022-09-24T17:28:52;13.61;83.53
68248;SHT30;55064;49.636;12.164;2022-09-24T17:31:24;13.54;83.94
68248;SHT30;55064;49.636;12.164;2022-09-24T17:33:57;13.47;84.23
68248;SHT30;55064;49.636;12.164;2022-09-24T17:36:24;13.50;84.07
68248;SHT30;55064;49.636;12.164;2022-09-24T17:38:50;13.50;84.07
68248;SHT30;55064;49.636;12.164;2022-09-24T17:41:17;13.40;84.20
68248;SHT30;55064;49.636;12.164;2022-09-24T17:43:43;13.36;84.56
68248;SHT30;55064;49.636;12.164;2022-09-24T17:46:17;13.31;84.60
68248;SHT30;55064;49.636;12.164;2022-09-24T17:48:46;13.36;84.77
68248;SHT30;55064;49.636;12.164;2022-09-24T17:51:13;13.30;85.31
68248;SHT30;55064;49.636;12.164;2022-09-24T17:53:39;13.24;85.14
68248;SHT30;55064;49.636;12.164;2022-09-24T17:56:08;13.23;85.48
68248;SHT30;55064;49.636;12.164;2022-09-24T17:58:36;13.26;85.52
68248;SHT30;55064;49.636;12.164;2022-09-24T18:01:05;13.21;85.90
68248;SHT30;55064;49.636;12.164;2022-09-24T18:03:30;13.23;86.01